createdAt,value
2023-02-03T00:00:55.856Z,4.73
2023-02-03T00:05:59.374Z,5.00
2023-02-03T00:11:04.274Z,4.63
2023-02-03T00:16:08.400Z,4.50
2023-02-03T00:21:11.827Z,4.87
2023-02-03T00:26:18.195Z,4.87
2023-02-03T00:31:25.504Z,4.93
2023-02-03T00:36:29.139Z,5.10
2023-02-03T00:41:33.979Z,5.33
2023-02-03T00:46:37.406Z,4.93
2023-02-03T00:51:40.850Z,4.60
2023-02-03T00:56:45.791Z,5.83
2023-02-03T01:01:51.149Z,5.07
2023-02-03T01:06:57.606Z,4.93
2023-02-03T01:12:02.610Z,4.37
2023-02-03T01:17:06.456Z,4.80
2023-02-03T01:22:09.846Z,4.57
2023-02-03T01:27:14.934Z,4.80
2023-02-03T01:32:18.430Z,4.23
2023-02-03T01:37:21.805Z,4.73
2023-02-03T01:42:26.906Z,4.73
2023-02-03T01:47:34.806Z,4.80
2023-02-03T01:52:40.520Z,5.07
2023-02-03T01:57:50.153Z,5.37
2023-02-03T02:02:54.351Z,5.00
2023-02-03T02:08:00.602Z,5.20
2023-02-03T02:13:07.091Z,5.50
2023-02-03T02:18:25.266Z,5.37
2023-02-03T02:24:00.673Z,5.27
2023-02-03T02:29:28.841Z,5.37
2023-02-03T02:34:43.523Z,4.57
2023-02-03T02:39:54.951Z,4.83
2023-02-03T02:45:06.708Z,4.57
2023-02-03T02:50:16.129Z,5.07
2023-02-03T02:55:24.844Z,5.13
2023-02-03T03:00:32.368Z,4.27
2023-02-03T03:05:38.089Z,4.40
2023-02-03T03:10:43.326Z,5.00
2023-02-03T03:15:47.356Z,4.73
2023-02-03T03:20:54.720Z,4.57
2023-02-03T03:26:06.054Z,5.07
2023-02-03T03:31:09.729Z,4.30
2023-02-03T03:36:23.676Z,4.40
2023-02-03T03:41:35.073Z,4.83
2023-02-03T03:46:44.795Z,4.70
2023-02-03T03:51:54.386Z,4.23
2023-02-03T03:57:02.144Z,4.80
2023-02-03T04:02:05.875Z,4.83
2023-02-03T04:07:10.765Z,4.70
2023-02-03T04:12:21.396Z,4.53
2023-02-03T04:17:25.109Z,4.53
2023-02-03T04:22:29.862Z,4.43
2023-02-03T04:27:33.748Z,4.70
2023-02-03T04:32:37.473Z,4.50
2023-02-03T04:37:42.866Z,4.27
2023-02-03T04:42:46.256Z,4.20
2023-02-03T04:47:54.499Z,4.60
2023-02-03T04:53:00.585Z,4.33
2023-02-03T04:58:04.037Z,4.87
2023-02-03T05:03:07.741Z,5.23
2023-02-03T05:08:12.574Z,4.70
2023-02-03T05:13:16.422Z,5.23
2023-02-03T05:18:19.869Z,4.73
2023-02-03T05:23:24.705Z,4.57
2023-02-03T05:28:28.093Z,4.90
2023-02-03T05:33:31.912Z,5.03
2023-02-03T05:38:36.668Z,4.73
2023-02-03T05:43:40.088Z,5.53
2023-02-03T05:48:43.457Z,4.60
2023-02-03T05:53:48.611Z,5.87
2023-02-03T05:58:54.028Z,5.03
2023-02-03T06:03:57.824Z,5.00
2023-02-03T06:09:04.795Z,4.60
2023-02-03T06:14:08.427Z,13.50
2023-02-03T06:19:11.956Z,5.87
2023-02-03T06:24:16.817Z,5.03
2023-02-03T06:29:20.327Z,5.40
2023-02-03T06:34:23.662Z,4.57
2023-02-03T06:39:28.852Z,5.20
2023-02-03T06:44:32.632Z,4.93
2023-02-03T06:49:36.059Z,4.83
2023-02-03T06:54:40.979Z,5.03
2023-02-03T06:59:44.391Z,4.90
2023-02-03T07:04:47.772Z,4.87
2023-02-03T07:09:52.847Z,4.60
2023-02-03T07:14:56.703Z,4.70
2023-02-03T07:20:00.458Z,4.20
2023-02-03T07:25:05.731Z,4.50
2023-02-03T07:30:10.608Z,4.03
2023-02-03T07:35:14.014Z,4.43
2023-02-03T07:40:19.652Z,4.77
2023-02-03T07:45:24.924Z,4.77
2023-02-03T07:50:28.767Z,4.60
2023-02-03T07:55:34.458Z,4.17
2023-02-03T08:00:37.936Z,4.40
2023-02-03T08:05:41.397Z,4.50
2023-02-03T08:10:46.482Z,3.70
2023-02-03T08:15:50.055Z,4.23
2023-02-03T08:20:53.498Z,5.40
2023-02-03T08:25:58.331Z,5.00
2023-02-03T08:31:02.213Z,3.90
2023-02-03T08:36:06.293Z,4.20
2023-02-03T08:41:13.497Z,3.83
2023-02-03T08:46:16.946Z,3.90
2023-02-03T08:51:20.953Z,3.83
2023-02-03T08:56:27.567Z,3.90
2023-02-03T09:01:31.288Z,3.97
2023-02-03T09:06:34.727Z,4.23
2023-02-03T09:11:39.945Z,3.73
2023-02-03T09:16:43.524Z,4.07
2023-02-03T09:21:49.177Z,3.60
2023-02-03T09:26:55.199Z,3.40
2023-02-03T09:31:58.673Z,3.47
2023-02-03T09:37:02.324Z,3.13
2023-02-03T09:42:28.595Z,3.23
2023-02-03T09:47:37.751Z,2.97
2023-02-03T09:52:44.332Z,4.10
2023-02-03T09:57:57.056Z,3.40
2023-02-03T10:03:07.342Z,3.13
2023-02-03T10:08:23.280Z,2.93
2023-02-03T10:13:36.667Z,2.73
2023-02-03T10:18:45.959Z,2.80
2023-02-03T10:23:51.330Z,3.13
2023-02-03T10:28:58.048Z,2.57
2023-02-03T10:34:06.206Z,2.73
2023-02-03T10:39:21.561Z,2.90
2023-02-03T10:44:33.367Z,2.60
2023-02-03T10:49:36.963Z,2.83
2023-02-03T10:54:40.689Z,3.10
2023-02-03T10:59:47.722Z,2.67
2023-02-03T11:05:10.984Z,2.80
2023-02-03T11:10:36.204Z,3.07
2023-02-03T11:15:46.158Z,2.60
2023-02-03T11:20:49.624Z,2.80
2023-02-03T11:25:53.848Z,3.00
2023-02-03T11:30:59.928Z,3.73
2023-02-03T11:36:05.558Z,2.93
2023-02-03T11:41:18.504Z,2.90
2023-02-03T11:46:23.737Z,2.77
2023-02-03T11:51:41.180Z,2.30
2023-02-03T11:57:01.743Z,2.90
2023-02-03T12:02:33.833Z,2.97
2023-02-03T12:08:02.043Z,3.70
2023-02-03T12:13:18.303Z,2.57
2023-02-03T12:18:33.753Z,2.50
2023-02-03T12:23:48.055Z,2.70
2023-02-03T12:28:57.645Z,3.63
2023-02-03T12:34:13.020Z,3.00
2023-02-03T12:39:23.159Z,2.80
2023-02-03T12:44:32.558Z,3.70
2023-02-03T12:49:43.581Z,3.17
2023-02-03T12:54:53.835Z,3.50
2023-02-03T13:00:19.912Z,2.67
2023-02-03T13:05:30.212Z,2.57
2023-02-03T13:10:39.909Z,2.63
2023-02-03T13:15:48.211Z,2.80
2023-02-03T13:20:53.660Z,3.10
2023-02-03T13:26:14.775Z,2.77
2023-02-03T13:31:33.361Z,2.30
2023-02-03T13:37:13.833Z,2.83
2023-02-03T13:42:26.527Z,2.60
2023-02-03T13:47:32.909Z,2.40
2023-02-03T13:52:43.316Z,2.30
2023-02-03T13:57:53.673Z,2.97
2023-02-03T14:02:58.099Z,2.40
2023-02-03T14:08:36.633Z,2.80
2023-02-03T14:13:41.540Z,3.53
2023-02-03T14:18:46.617Z,4.10
2023-02-03T14:24:00.300Z,2.60
2023-02-03T14:29:06.253Z,3.13
2023-02-03T14:34:15.349Z,3.37
2023-02-03T14:40:15.802Z,2.83
2023-02-03T14:45:33.177Z,3.00
2023-02-03T14:50:53.485Z,3.10
2023-02-03T14:56:11.589Z,3.27
2023-02-03T15:02:08.053Z,4.17
2023-02-03T15:07:11.426Z,5.33
2023-02-03T15:12:18.283Z,4.63
2023-02-03T15:17:25.859Z,5.30
2023-02-03T15:22:31.167Z,3.97
2023-02-03T15:27:34.826Z,4.10
2023-02-03T15:32:45.979Z,4.57
2023-02-03T15:37:55.106Z,4.07
2023-02-03T15:43:01.929Z,19.43
2023-02-03T15:48:13.693Z,12.30
2023-02-03T15:53:22.184Z,6.90
2023-02-03T15:58:29.277Z,8.30
2023-02-03T16:03:41.732Z,3.93
2023-02-03T16:08:48.227Z,3.30
2023-02-03T16:13:52.315Z,3.80
2023-02-03T16:19:00.150Z,3.47
2023-02-03T16:24:05.268Z,3.83
2023-02-03T16:29:32.826Z,4.00
2023-02-03T16:34:55.208Z,3.23
2023-02-03T16:40:17.115Z,4.10
2023-02-03T16:45:37.927Z,4.73
2023-02-03T16:50:54.146Z,6.17
2023-02-03T16:55:59.226Z,5.50
2023-02-03T17:01:05.666Z,5.97
2023-02-03T17:06:13.039Z,6.87
2023-02-03T17:11:18.445Z,7.47
2023-02-03T17:16:24.668Z,7.53
2023-02-03T17:21:31.225Z,8.67
2023-02-03T17:26:34.971Z,8.67
2023-02-03T17:31:38.391Z,8.73
2023-02-03T17:36:43.230Z,9.80
2023-02-03T17:57:51.451Z,8.13
2023-02-03T18:02:56.117Z,8.13
2023-02-03T18:08:08.908Z,8.83
2023-02-03T18:13:23.638Z,6.57
2023-02-03T18:18:28.157Z,6.00
2023-02-03T18:23:33.371Z,4.70
2023-02-03T18:28:37.086Z,5.37
2023-02-03T18:33:40.709Z,5.23
2023-02-03T18:38:47.400Z,5.40
2023-02-03T18:43:51.426Z,5.90
2023-02-03T18:48:56.219Z,6.03
2023-02-03T18:54:01.280Z,6.33
2023-02-03T18:59:10.096Z,6.20
2023-02-03T19:04:14.230Z,5.03
2023-02-03T19:09:23.787Z,4.60
2023-02-03T19:14:28.502Z,4.83
2023-02-03T19:19:31.989Z,5.00
2023-02-03T19:24:36.843Z,4.40
2023-02-03T19:29:40.329Z,4.40
2023-02-03T19:34:43.722Z,4.30
2023-02-03T19:39:50.475Z,4.30
2023-02-03T19:44:53.968Z,3.97
2023-02-03T19:50:01.719Z,4.13
2023-02-03T19:55:08.944Z,4.80
2023-02-03T20:00:15.062Z,4.80
2023-02-03T20:05:20.299Z,5.30
2023-02-03T20:10:26.476Z,5.27
2023-02-03T20:15:29.996Z,4.83
2023-02-03T20:20:34.281Z,5.30
2023-02-03T20:25:39.225Z,4.67
2023-02-03T20:30:43.417Z,5.20
2023-02-03T20:35:46.851Z,4.87
2023-02-03T20:40:51.987Z,5.47
2023-02-03T20:45:55.865Z,4.93
2023-02-03T20:50:59.262Z,5.37
2023-02-03T20:56:08.473Z,5.40
2023-02-03T21:01:16.555Z,5.07
2023-02-03T21:06:21.532Z,5.33
2023-02-03T21:11:27.512Z,5.43
2023-02-03T21:16:39.022Z,5.50
2023-02-03T21:21:44.033Z,5.40
2023-02-03T21:26:49.722Z,5.13
2023-02-03T21:31:54.521Z,5.57
2023-02-03T21:36:59.114Z,5.70
2023-02-03T21:42:18.784Z,5.63
2023-02-03T21:47:22.549Z,5.70
2023-02-03T21:52:26.055Z,6.13
2023-02-03T21:57:30.893Z,5.77
2023-02-03T22:02:56.592Z,5.17
2023-02-03T22:08:00.096Z,5.40
2023-02-03T22:13:04.875Z,5.10
2023-02-03T22:18:08.625Z,5.43
2023-02-03T22:23:12.344Z,5.30
2023-02-03T22:28:17.638Z,5.53
2023-02-03T22:33:21.139Z,5.30
2023-02-03T22:38:24.767Z,4.53
2023-02-03T22:43:31.151Z,5.30
2023-02-03T22:48:35.244Z,5.60
2023-02-03T22:53:39.917Z,5.77
2023-02-03T22:58:44.891Z,5.57
2023-02-03T23:03:48.220Z,5.27
2023-02-03T23:08:51.729Z,5.60
2023-02-03T23:13:56.632Z,5.50
2023-02-03T23:18:59.996Z,5.70
2023-02-03T23:24:03.396Z,5.10
2023-02-03T23:29:08.205Z,4.70
2023-02-03T23:34:29.150Z,4.97
2023-02-03T23:39:32.501Z,5.27
2023-02-03T23:44:37.316Z,4.87
2023-02-03T23:49:40.713Z,4.80
2023-02-03T23:54:44.157Z,4.90
2023-02-03T23:59:49.314Z,4.50
